createdAt,value
2019-03-06T00:00:46.809Z,94384.34
2019-03-06T00:03:15.491Z,94383.94
2019-03-06T00:05:44.166Z,94379.03
2019-03-06T00:08:12.865Z,94381.06
2019-03-06T00:10:41.514Z,94390.04
2019-03-06T00:13:10.175Z,94380.89
2019-03-06T00:15:38.841Z,94375.95
2019-03-06T00:18:07.598Z,94368.98
2019-03-06T00:20:36.281Z,94367.88
2019-03-06T00:23:07.818Z,94372.75
2019-03-06T00:25:36.482Z,94377.43
2019-03-06T00:28:05.257Z,94380.61
2019-03-06T00:30:33.933Z,94386.20
2019-03-06T00:33:03.637Z,94389.02
2019-03-06T00:35:33.874Z,94376.47
2019-03-06T00:38:02.541Z,94377.02
2019-03-06T00:40:33.263Z,94369.62
2019-03-06T00:43:01.958Z,94357.41
2019-03-06T00:45:30.630Z,94366.14
2019-03-06T00:47:59.301Z,94369.47
2019-03-06T00:50:27.973Z,94358.81
2019-03-06T00:52:56.704Z,94361.84
2019-03-06T00:55:25.381Z,94358.90
2019-03-06T00:57:54.093Z,94367.50
2019-03-06T01:00:25.437Z,94360.91
2019-03-06T01:02:54.099Z,94356.56
2019-03-06T01:05:23.095Z,94347.97
2019-03-06T01:07:51.998Z,94351.44
2019-03-06T01:10:20.736Z,94353.35
2019-03-06T01:12:49.397Z,94360.84
2019-03-06T01:15:18.943Z,94360.61
2019-03-06T01:17:47.913Z,94359.81
2019-03-06T01:20:16.996Z,94368.41
2019-03-06T01:22:45.700Z,94365.56
2019-03-06T01:25:18.965Z,94338.42
2019-03-06T01:27:47.669Z,94356.19
2019-03-06T01:30:19.524Z,94356.09
2019-03-06T01:32:49.957Z,94343.36
2019-03-06T01:35:36.364Z,94344.06
2019-03-06T01:38:22.305Z,94348.85
2019-03-06T01:40:55.598Z,94351.05
2019-03-06T01:43:26.005Z,94334.41
2019-03-06T01:45:54.667Z,94334.66
2019-03-06T01:48:23.357Z,94334.48
2019-03-06T01:50:52.027Z,94337.80
2019-03-06T01:53:20.786Z,94334.14
2019-03-06T01:55:49.587Z,94340.85
2019-03-06T01:58:18.367Z,94332.95
2019-03-06T02:00:47.031Z,94337.89
2019-03-06T02:03:15.705Z,94337.27
2019-03-06T02:05:44.409Z,94334.02
2019-03-06T02:08:13.689Z,94337.69
2019-03-06T02:10:42.395Z,94343.85
2019-03-06T02:13:11.370Z,94345.94
2019-03-06T02:15:40.041Z,94341.62
2019-03-06T02:18:08.739Z,94332.42
2019-03-06T02:20:37.612Z,94338.06
2019-03-06T02:23:06.278Z,94334.65
2019-03-06T02:25:34.948Z,94334.36
2019-03-06T02:28:03.835Z,94338.48
2019-03-06T02:30:32.525Z,94329.33
2019-03-06T02:33:01.294Z,94331.81
2019-03-06T02:35:29.990Z,94337.95
2019-03-06T02:37:58.670Z,94335.47
2019-03-06T02:40:27.370Z,94338.31
2019-03-06T02:42:56.047Z,94340.38
2019-03-06T02:45:24.696Z,94342.78
2019-03-06T02:47:53.378Z,94341.12
2019-03-06T02:50:22.516Z,94340.18
2019-03-06T02:52:51.964Z,94343.98
2019-03-06T02:55:22.179Z,94340.72
2019-03-06T02:58:04.510Z,94344.45
2019-03-06T03:00:35.031Z,94355.09
2019-03-06T03:03:09.351Z,94357.64
2019-03-06T03:05:39.644Z,94355.80
2019-03-06T03:08:08.674Z,94363.20
2019-03-06T03:10:37.347Z,94369.37
2019-03-06T03:13:06.187Z,94375.20
2019-03-06T03:15:34.853Z,94378.14
2019-03-06T03:18:03.511Z,94382.40
2019-03-06T03:20:32.256Z,94374.46
2019-03-06T03:23:00.913Z,94383.55
2019-03-06T03:25:29.761Z,94382.25
2019-03-06T03:27:58.446Z,94378.98
2019-03-06T03:30:27.158Z,94385.66
2019-03-06T03:32:55.959Z,94387.45
2019-03-06T03:35:24.739Z,94377.02
2019-03-06T03:37:53.633Z,94378.94
2019-03-06T03:40:22.308Z,94378.45
2019-03-06T03:42:51.368Z,94374.17
2019-03-06T03:45:20.047Z,94384.78
2019-03-06T03:47:48.751Z,94375.34
2019-03-06T03:50:17.414Z,94370.65
2019-03-06T03:52:46.090Z,94375.32
2019-03-06T03:55:18.249Z,94383.06
2019-03-06T03:57:46.928Z,94382.28
2019-03-06T04:00:17.528Z,94370.80
2019-03-06T04:02:46.536Z,94388.05
2019-03-06T04:05:15.195Z,94393.16
2019-03-06T04:07:44.372Z,94384.90
2019-03-06T04:10:14.185Z,94386.57
2019-03-06T04:12:42.866Z,94378.66
2019-03-06T04:15:18.829Z,94386.87
2019-03-06T04:17:47.515Z,94362.06
2019-03-06T04:20:16.967Z,94378.97
2019-03-06T04:22:45.689Z,94378.82
2019-03-06T04:25:14.478Z,94371.33
2019-03-06T04:27:43.144Z,94385.28
2019-03-06T04:30:16.190Z,94392.45
2019-03-06T04:32:44.851Z,94393.65
2019-03-06T04:35:13.629Z,94393.01
2019-03-06T04:37:42.304Z,94396.00
2019-03-06T04:40:13.925Z,94396.17
2019-03-06T04:42:42.600Z,94396.70
2019-03-06T04:45:18.566Z,94413.92
2019-03-06T04:47:47.241Z,94408.78
2019-03-06T04:50:16.107Z,94428.94
2019-03-06T04:52:44.945Z,94431.24
2019-03-06T04:55:14.826Z,94437.34
2019-03-06T04:57:43.794Z,94436.67
2019-03-06T05:00:17.629Z,94453.45
2019-03-06T05:02:46.352Z,94466.19
2019-03-06T05:05:15.072Z,94456.96
2019-03-06T05:07:43.760Z,94462.98
2019-03-06T05:10:13.232Z,94469.11
2019-03-06T05:12:42.325Z,94460.11
2019-03-06T05:15:13.363Z,94468.95
2019-03-06T05:17:43.592Z,94462.60
2019-03-06T05:20:12.375Z,94454.52
2019-03-06T05:22:41.004Z,94451.89
2019-03-06T05:25:09.666Z,94457.32
2019-03-06T05:27:38.369Z,94467.13
2019-03-06T05:30:10.805Z,94466.55
2019-03-06T05:32:39.475Z,94461.31
2019-03-06T05:35:14.245Z,94459.27
2019-03-06T05:37:46.148Z,94471.80
2019-03-06T05:40:14.818Z,94475.25
2019-03-06T05:42:43.479Z,94470.36
2019-03-06T05:45:12.186Z,94466.08
2019-03-06T05:47:40.938Z,94471.59
2019-03-06T05:50:09.833Z,94476.00
2019-03-06T05:52:38.496Z,94477.09
2019-03-06T05:55:08.173Z,94483.18
2019-03-06T05:57:36.859Z,94486.58
2019-03-06T06:00:14.677Z,94487.58
2019-03-06T06:02:43.415Z,94493.23
2019-03-06T06:05:14.011Z,94494.21
2019-03-06T06:07:43.256Z,94502.70
2019-03-06T06:10:14.187Z,94500.86
2019-03-06T06:12:42.895Z,94496.10
2019-03-06T06:15:13.428Z,94498.00
2019-03-06T06:17:42.132Z,94504.05
2019-03-06T06:20:12.560Z,94507.16
2019-03-06T06:22:58.875Z,94511.31
2019-03-06T06:25:28.605Z,94508.86
2019-03-06T06:27:57.270Z,94511.65
2019-03-06T06:30:26.135Z,94513.39
2019-03-06T06:32:54.810Z,94513.73
2019-03-06T06:35:23.683Z,94511.91
2019-03-06T06:37:52.377Z,94507.69
2019-03-06T06:40:21.157Z,94514.10
2019-03-06T06:42:50.272Z,94520.12
2019-03-06T06:45:19.202Z,94529.16
2019-03-06T06:48:10.105Z,94531.67
2019-03-06T06:50:44.471Z,94533.49
2019-03-06T06:53:27.915Z,94536.37
2019-03-06T06:56:12.097Z,94543.37
2019-03-06T06:59:00.088Z,94544.22
2019-03-06T07:01:33.350Z,94540.08
2019-03-06T07:04:18.517Z,94553.10
2019-03-06T07:07:07.080Z,94547.53
2019-03-06T07:09:46.463Z,94542.28
2019-03-06T07:12:19.726Z,94549.76
2019-03-06T07:14:52.909Z,94551.28
2019-03-06T07:17:23.137Z,94555.52
2019-03-06T07:19:53.470Z,94559.10
2019-03-06T07:22:29.509Z,94556.95
2019-03-06T07:24:59.798Z,94554.95
2019-03-06T07:27:30.181Z,94557.63
2019-03-06T07:30:06.322Z,94560.81
2019-03-06T07:32:36.618Z,94555.89
2019-03-06T07:35:59.579Z,94567.51
2019-03-06T07:38:28.663Z,94565.17
2019-03-06T07:41:01.699Z,94579.38
2019-03-06T07:43:48.333Z,94578.38
2019-03-06T07:46:36.862Z,94580.16
2019-03-06T07:49:19.462Z,94579.15
2019-03-06T07:51:52.454Z,94586.00
2019-03-06T07:54:29.036Z,94583.88
2019-03-06T07:57:10.961Z,94576.10
2019-03-06T07:59:40.019Z,94580.99
2019-03-06T08:02:21.022Z,94582.34
2019-03-06T08:04:54.333Z,94583.27
2019-03-06T08:07:26.275Z,94584.80
2019-03-06T08:09:55.304Z,94586.77
2019-03-06T08:12:25.640Z,94596.10
2019-03-06T08:15:07.784Z,94610.26
2019-03-06T08:17:41.074Z,94606.76
2019-03-06T08:20:27.954Z,94602.98
2019-03-06T08:23:04.273Z,94603.35
2019-03-06T08:25:44.591Z,94603.28
2019-03-06T08:28:14.223Z,94606.45
2019-03-06T08:30:44.903Z,94608.34
2019-03-06T08:33:18.191Z,94606.32
2019-03-06T08:35:44.036Z,94604.73
2019-03-06T08:38:12.884Z,94608.16
2019-03-06T08:40:44.729Z,94611.47
2019-03-06T08:43:13.431Z,94611.81
2019-03-06T08:45:52.856Z,94615.42
2019-03-06T08:48:38.241Z,94604.84
2019-03-06T08:51:11.325Z,94610.53
2019-03-06T08:56:29.425Z,94616.91
2019-03-06T08:58:59.685Z,94610.84
2019-03-06T09:01:45.973Z,94611.84
2019-03-06T09:04:22.649Z,94616.74
2019-03-06T09:07:08.976Z,94610.61
2019-03-06T09:09:45.574Z,94615.48
2019-03-06T09:12:22.059Z,94611.59
2019-03-06T09:15:10.713Z,94616.69
2019-03-06T09:17:47.574Z,94626.84
2019-03-06T09:20:38.265Z,94632.17
2019-03-06T09:23:23.431Z,94622.53
2019-03-06T09:26:08.288Z,94644.05
2019-03-06T09:29:00.988Z,94626.14
2019-03-06T09:31:26.709Z,94632.71
2019-03-06T09:33:57.049Z,94632.02
2019-03-06T09:36:45.507Z,94633.13
2019-03-06T09:39:18.236Z,94641.27
2019-03-06T09:41:54.360Z,94635.67
2019-03-06T09:44:41.085Z,94640.88
2019-03-06T09:47:27.395Z,94635.41
2019-03-06T09:50:12.668Z,94639.22
2019-03-06T09:52:52.196Z,94642.01
2019-03-06T09:55:40.585Z,94635.30
2019-03-06T09:58:27.242Z,94639.10
2019-03-06T10:01:03.282Z,94634.03
2019-03-06T10:03:43.021Z,94634.21
2019-03-06T10:06:22.499Z,94635.08
2019-03-06T10:09:08.826Z,94629.11
2019-03-06T10:11:48.279Z,94624.61
2019-03-06T10:14:24.350Z,94621.60
2019-03-06T10:17:00.421Z,94625.19
2019-03-06T10:19:30.762Z,94626.13
2019-03-06T10:21:59.471Z,94621.77
2019-03-06T10:24:28.196Z,94620.17
2019-03-06T10:26:56.938Z,94618.04
2019-03-06T10:29:25.919Z,94609.88
2019-03-06T10:31:54.646Z,94610.88
2019-03-06T10:34:23.685Z,94611.53
2019-03-06T10:36:52.470Z,94619.21
2019-03-06T10:39:21.157Z,94622.64
2019-03-06T10:41:50.032Z,94624.52
2019-03-06T10:44:18.736Z,94603.11
2019-03-06T10:46:47.396Z,94608.47
2019-03-06T10:49:16.106Z,94608.89
2019-03-06T10:51:44.814Z,94606.77
2019-03-06T10:54:13.495Z,94604.09
2019-03-06T10:56:42.221Z,94594.55
2019-03-06T10:59:11.043Z,94594.98
2019-03-06T11:01:39.873Z,94585.47
2019-03-06T11:04:25.460Z,94580.80
2019-03-06T11:06:54.421Z,94576.56
2019-03-06T11:09:24.567Z,94572.77
2019-03-06T11:11:53.408Z,94576.97
2019-03-06T11:14:22.135Z,94570.34
2019-03-06T11:16:50.880Z,94563.76
2019-03-06T11:19:20.024Z,94570.16
2019-03-06T11:21:49.113Z,94575.52
2019-03-06T11:24:17.852Z,94574.96
2019-03-06T11:26:46.665Z,94585.95
2019-03-06T11:29:15.643Z,94578.29
2019-03-06T11:31:44.451Z,94569.20
2019-03-06T11:34:13.283Z,94570.09
2019-03-06T11:36:44.529Z,94570.41
2019-03-06T11:39:13.730Z,94566.20
2019-03-06T11:41:42.704Z,94569.48
2019-03-06T11:44:11.728Z,94560.42
2019-03-06T11:46:40.419Z,94571.42
2019-03-06T11:49:09.106Z,94562.25
2019-03-06T11:51:38.105Z,94560.64
2019-03-06T11:54:09.714Z,94562.97
2019-03-06T11:56:38.836Z,94559.66
2019-03-06T11:59:07.678Z,94562.07
2019-03-06T12:01:44.757Z,94558.27
2019-03-06T12:04:07.993Z,94557.53
2019-03-06T12:06:36.816Z,94563.06
2019-03-06T12:09:08.467Z,94553.21
2019-03-06T12:11:37.130Z,94554.65
2019-03-06T12:14:06.114Z,94555.54
2019-03-06T12:16:41.552Z,94553.34
2019-03-06T12:19:05.559Z,94567.41
2019-03-06T12:21:34.263Z,94537.80
2019-03-06T12:24:02.991Z,94556.27
2019-03-06T12:26:31.708Z,94560.22
2019-03-06T12:29:00.747Z,94554.55
2019-03-06T12:31:29.563Z,94548.64
2019-03-06T12:33:58.249Z,94550.59
2019-03-06T12:36:26.945Z,94556.09
2019-03-06T12:38:57.769Z,94548.86
2019-03-06T12:41:26.128Z,94540.50
2019-03-06T12:43:54.914Z,94543.75
2019-03-06T12:46:24.401Z,94546.29
2019-03-06T12:48:56.229Z,94559.06
2019-03-06T12:51:24.952Z,94549.80
2019-03-06T12:53:53.853Z,94558.61
2019-03-06T12:56:22.751Z,94553.13
2019-03-06T12:58:51.485Z,94556.28
2019-03-06T13:01:20.667Z,94565.70
2019-03-06T13:03:49.401Z,94560.84
2019-03-06T13:07:38.705Z,94576.89
2019-03-06T13:08:50.686Z,94566.66
2019-03-06T13:11:19.594Z,94570.77
2019-03-06T13:13:48.591Z,94566.17
2019-03-06T13:16:17.482Z,94566.53
2019-03-06T13:18:46.264Z,94568.98
2019-03-06T13:21:15.598Z,94557.56
2019-03-06T13:23:44.710Z,94566.38
2019-03-06T13:26:13.398Z,94565.33
2019-03-06T13:28:42.225Z,94568.02
2019-03-06T13:31:10.937Z,94559.70
2019-03-06T13:33:44.133Z,94565.33
2019-03-06T13:36:13.112Z,94562.91
2019-03-06T13:38:41.908Z,94567.42
2019-03-06T13:41:10.666Z,94567.67
2019-03-06T13:43:39.446Z,94562.94
2019-03-06T13:46:08.245Z,94561.88
2019-03-06T13:48:36.958Z,94563.61
2019-03-06T13:51:05.972Z,94572.23
2019-03-06T13:53:34.653Z,94567.91
2019-03-06T13:56:03.851Z,94569.08
2019-03-06T13:58:32.801Z,94576.21
2019-03-06T14:01:02.118Z,94571.28
2019-03-06T14:03:30.981Z,94575.81
2019-03-06T14:06:00.185Z,94564.67
2019-03-06T14:08:29.176Z,94581.77
2019-03-06T14:10:57.920Z,94570.57
2019-03-06T14:13:26.838Z,94577.27
2019-03-06T14:15:55.527Z,94575.39
2019-03-06T14:18:24.321Z,94569.59
2019-03-06T14:20:53.327Z,94574.26
2019-03-06T14:23:22.206Z,94574.69
2019-03-06T14:25:51.102Z,94579.52
2019-03-06T14:28:19.877Z,94575.52
2019-03-06T14:30:48.639Z,94576.41
2019-03-06T14:33:17.302Z,94575.14
2019-03-06T14:35:46.350Z,94579.43
2019-03-06T14:38:15.062Z,94584.00
2019-03-06T14:40:44.442Z,94583.08
2019-03-06T14:43:14.695Z,94583.86
2019-03-06T14:45:43.609Z,94518.30
2019-03-06T14:48:12.387Z,94588.42
2019-03-06T14:50:41.441Z,94582.31
2019-03-06T14:53:10.144Z,94588.71
2019-03-06T14:55:38.819Z,94589.45
2019-03-06T14:58:07.505Z,94587.53
2019-03-06T15:00:36.321Z,94592.01
2019-03-06T15:03:05.075Z,94597.05
2019-03-06T15:05:33.719Z,94590.37
2019-03-06T15:08:02.608Z,94590.83
2019-03-06T15:10:31.530Z,94595.44
2019-03-06T15:13:00.362Z,94597.35
2019-03-06T15:15:29.201Z,94599.11
2019-03-06T15:17:58.027Z,94599.75
2019-03-06T15:20:28.730Z,94604.35
2019-03-06T15:22:58.597Z,94610.52
2019-03-06T15:25:31.164Z,94611.91
2019-03-06T15:27:59.952Z,94612.37
2019-03-06T15:30:28.660Z,94615.64
2019-03-06T15:32:57.406Z,94619.73
2019-03-06T15:35:26.837Z,94622.28
2019-03-06T15:37:55.615Z,94626.53
2019-03-06T15:40:33.504Z,94621.28
2019-03-06T15:43:02.264Z,94627.34
2019-03-06T15:45:34.070Z,94627.85
2019-03-06T15:48:02.819Z,94632.06
2019-03-06T15:50:31.686Z,94635.42
2019-03-06T15:53:00.360Z,94627.63
2019-03-06T15:55:29.752Z,94632.85
2019-03-06T15:57:58.548Z,94627.23
2019-03-06T16:00:45.885Z,94634.72
2019-03-06T16:03:10.244Z,94645.66
2019-03-06T16:05:39.923Z,94652.40
2019-03-06T16:08:10.014Z,94654.28
2019-03-06T16:10:40.243Z,94663.88
2019-03-06T16:13:09.200Z,94662.98
2019-03-06T16:15:37.882Z,94668.91
2019-03-06T16:18:08.183Z,94673.16
2019-03-06T16:20:37.725Z,94676.81
2019-03-06T16:23:07.360Z,94683.81
2019-03-06T16:25:38.996Z,94683.09
2019-03-06T16:28:06.888Z,94683.58
2019-03-06T16:30:35.575Z,94686.07
2019-03-06T16:33:04.369Z,94702.08
2019-03-06T16:35:33.155Z,94705.28
2019-03-06T16:38:01.849Z,94707.64
2019-03-06T16:40:31.107Z,94707.99
2019-03-06T16:43:00.996Z,94711.59
2019-03-06T16:45:30.557Z,94713.05
2019-03-06T16:48:00.508Z,94711.39
2019-03-06T16:50:30.862Z,94707.89
2019-03-06T16:52:59.743Z,94711.84
2019-03-06T16:55:28.614Z,94721.48
2019-03-06T16:57:57.582Z,94715.00
2019-03-06T17:00:34.537Z,94720.91
2019-03-06T17:03:06.185Z,94721.91
2019-03-06T17:05:35.355Z,94723.84
2019-03-06T17:08:08.752Z,94730.05
2019-03-06T17:10:38.790Z,94730.86
2019-03-06T17:13:07.964Z,94737.87
2019-03-06T17:15:36.839Z,94739.08
2019-03-06T17:18:06.568Z,94740.01
2019-03-06T17:20:36.891Z,94743.66
2019-03-06T17:23:06.768Z,94746.97
2019-03-06T17:25:35.798Z,94745.88
2019-03-06T17:28:05.268Z,94752.95
2019-03-06T17:30:35.410Z,94752.89
2019-03-06T17:33:09.548Z,94752.70
2019-03-06T17:35:39.077Z,94757.86
2019-03-06T17:38:10.245Z,94761.02
2019-03-06T17:40:39.265Z,94766.11
2019-03-06T17:43:09.854Z,94772.10
2019-03-06T17:45:39.413Z,94772.53
2019-03-06T17:48:09.651Z,94763.93
2019-03-06T17:50:38.445Z,94767.14
2019-03-06T17:53:07.537Z,94767.92
2019-03-06T17:55:36.316Z,94762.88
2019-03-06T17:58:05.641Z,94769.47
2019-03-06T18:00:42.258Z,94763.61
2019-03-06T18:03:12.749Z,94760.54
2019-03-06T18:05:41.919Z,94758.13
2019-03-06T18:08:11.601Z,94756.13
2019-03-06T18:10:40.377Z,94755.22
2019-03-06T18:13:09.433Z,94750.70
2019-03-06T18:15:38.116Z,94753.28
2019-03-06T18:18:06.783Z,94750.91
2019-03-06T18:20:35.527Z,94749.02
2019-03-06T18:23:04.213Z,94746.71
2019-03-06T18:25:32.879Z,94746.33
2019-03-06T18:28:01.580Z,94752.08
2019-03-06T18:30:30.237Z,94761.59
2019-03-06T18:32:59.003Z,94764.03
2019-03-06T18:35:27.668Z,94759.95
2019-03-06T18:37:56.737Z,94765.03
2019-03-06T18:40:28.579Z,94763.21
2019-03-06T18:42:57.284Z,94759.12
2019-03-06T18:45:26.091Z,94761.95
2019-03-06T18:47:54.817Z,94762.09
2019-03-06T18:50:24.683Z,94763.72
2019-03-06T18:52:53.474Z,94768.65
2019-03-06T18:55:22.543Z,94763.28
2019-03-06T18:57:51.211Z,94768.48
2019-03-06T19:00:21.799Z,94768.17
2019-03-06T19:02:50.762Z,94761.17
2019-03-06T19:05:21.044Z,94771.31
2019-03-06T19:07:50.620Z,94773.80
2019-03-06T19:10:20.290Z,94762.83
2019-03-06T19:12:49.205Z,94761.14
2019-03-06T19:15:25.628Z,94758.16
2019-03-06T19:17:54.333Z,94767.17
2019-03-06T19:20:23.901Z,94765.72
2019-03-06T19:22:53.264Z,94766.23
2019-03-06T19:25:22.132Z,94771.11
2019-03-06T19:27:51.170Z,94767.84
2019-03-06T19:30:23.665Z,94774.09
2019-03-06T19:32:52.467Z,94768.48
2019-03-06T19:35:28.726Z,94767.13
2019-03-06T19:37:57.445Z,94768.66
2019-03-06T19:40:26.599Z,94772.41
2019-03-06T19:42:55.271Z,94776.69
2019-03-06T19:45:25.305Z,94789.08
2019-03-06T19:47:53.951Z,94795.63
2019-03-06T19:50:26.404Z,94799.91
2019-03-06T19:52:55.836Z,94803.59
2019-03-06T19:55:24.902Z,94811.55
2019-03-06T19:57:59.072Z,94800.64
2019-03-06T20:00:29.787Z,94811.20
2019-03-06T20:02:59.580Z,94806.70
2019-03-06T20:05:36.984Z,94809.75
2019-03-06T20:08:13.525Z,94814.97
2019-03-06T20:10:42.186Z,94816.24
2019-03-06T20:13:12.416Z,94823.35
2019-03-06T20:15:41.776Z,94828.83
2019-03-06T20:18:11.015Z,94828.26
2019-03-06T20:20:39.964Z,94823.89
2019-03-06T20:23:09.065Z,94829.41
2019-03-06T20:25:38.186Z,94826.13
2019-03-06T20:28:07.343Z,94821.89
2019-03-06T20:30:36.319Z,94819.05
2019-03-06T20:33:05.999Z,94816.41
2019-03-06T20:35:34.981Z,94823.14
2019-03-06T20:38:03.660Z,94819.95
2019-03-06T20:40:32.341Z,94818.48
2019-03-06T20:43:01.010Z,94816.03
2019-03-06T20:45:29.751Z,94820.05
2019-03-06T20:47:58.593Z,94823.55
2019-03-06T20:50:27.461Z,94824.95
2019-03-06T20:52:56.714Z,94828.88
2019-03-06T20:55:25.434Z,94813.66
2019-03-06T20:57:54.366Z,94832.95
2019-03-06T21:00:25.995Z,94834.13
2019-03-06T21:02:54.659Z,94828.89
2019-03-06T21:05:23.590Z,94836.46
2019-03-06T21:07:52.296Z,94837.48
2019-03-06T21:10:21.354Z,94837.66
2019-03-06T21:12:50.018Z,94830.63
2019-03-06T21:15:20.829Z,94839.56
2019-03-06T21:17:49.574Z,94843.31
2019-03-06T21:20:22.767Z,94829.00
2019-03-06T21:22:51.448Z,94828.41
2019-03-06T21:25:21.384Z,94838.64
2019-03-06T21:27:50.519Z,94840.88
2019-03-06T21:30:23.105Z,94840.58
2019-03-06T21:32:51.833Z,94839.45
2019-03-06T21:35:20.751Z,94842.62
2019-03-06T21:37:49.481Z,94835.80
2019-03-06T21:40:18.656Z,94833.95
2019-03-06T21:42:47.893Z,94842.89
2019-03-06T21:45:16.912Z,94837.06
2019-03-06T21:47:45.549Z,94829.53
2019-03-06T21:50:16.666Z,94836.28
2019-03-06T21:52:45.337Z,94844.88
2019-03-06T21:55:15.454Z,94844.58
2019-03-06T21:57:44.411Z,94841.09
2019-03-06T22:00:18.779Z,94850.70
2019-03-06T22:02:47.443Z,94850.88
2019-03-06T22:05:16.451Z,94850.19
2019-03-06T22:07:45.130Z,94846.23
2019-03-06T22:10:16.298Z,94850.81
2019-03-06T22:12:45.260Z,94852.02
2019-03-06T22:15:19.711Z,94854.58
2019-03-06T22:17:48.423Z,94860.22
2019-03-06T22:20:17.759Z,94858.02
2019-03-06T22:22:46.433Z,94860.44
2019-03-06T22:25:17.786Z,94862.87
2019-03-06T22:27:46.488Z,94864.65
2019-03-06T22:30:17.651Z,94865.13
2019-03-06T22:32:46.324Z,94857.47
2019-03-06T22:35:15.109Z,94848.63
2019-03-06T22:37:43.856Z,94856.17
2019-03-06T22:40:15.563Z,94862.02
2019-03-06T22:42:44.249Z,94862.77
2019-03-06T22:45:18.233Z,94864.72
2019-03-06T22:47:48.506Z,94857.66
2019-03-06T22:50:20.230Z,94847.00
2019-03-06T22:52:49.523Z,94859.02
2019-03-06T22:55:19.596Z,94849.25
2019-03-06T22:57:48.317Z,94852.88
2019-03-06T23:00:33.956Z,94859.00
2019-03-06T23:03:02.720Z,94847.73
2019-03-06T23:05:34.590Z,94863.80
2019-03-06T23:08:03.411Z,94848.05
2019-03-06T23:10:32.102Z,94860.78
2019-03-06T23:13:00.759Z,94857.04
2019-03-06T23:15:29.459Z,94847.97
2019-03-06T23:17:58.345Z,94847.13
2019-03-06T23:20:27.035Z,94850.27
2019-03-06T23:22:55.751Z,94852.48
2019-03-06T23:25:24.457Z,94852.77
2019-03-06T23:27:53.250Z,94837.32
2019-03-06T23:30:21.926Z,94840.76
2019-03-06T23:32:50.798Z,94839.55
2019-03-06T23:35:19.470Z,94833.26
2019-03-06T23:37:48.250Z,94838.23
2019-03-06T23:40:16.917Z,94842.41
2019-03-06T23:42:47.788Z,94838.52
2019-03-06T23:45:15.985Z,94843.88
2019-03-06T23:47:44.662Z,94839.69
2019-03-06T23:50:14.043Z,94834.47
2019-03-06T23:53:02.189Z,94835.53
2019-03-06T23:55:32.168Z,94824.88
2019-03-06T23:58:00.864Z,94840.19
